Time,TemperatureF,DewpointF,PressureIn,WindDirection,WindDirectionDegrees,WindSpeedMPH,WindSpeedGustMPH,Humidity,HourlyPrecipIn,Conditions,Clouds,dailyrainin,SoftwareType,DateUTC
2013-12-16 00:09:00,41.6,28.0,29.96,WNW,300,0.0,4.0,59,0.00,,,0.00,weatherlink.com 1.10,2013-12-16 06:09:00,
2013-12-16 00:24:00,41.4,27.0,29.96,WNW,285,0.0,3.0,58,0.00,,,0.00,weatherlink.com 1.10,2013-12-16 06:24:00,
2013-12-16 00:39:00,42.4,28.0,29.96,WNW,301,0.0,2.0,56,0.00,,,0.00,weatherlink.com 1.10,2013-12-16 06:39:00,
2013-12-16 00:54:00,42.3,27.0,29.96,North,352,0.0,2.0,56,0.00,,,0.00,weatherlink.com 1.10,2013-12-16 06:54:00,
2013-12-16 01:09:00,42.1,27.0,29.95,WNW,302,0.0,1.0,56,0.00,,,0.00,weatherlink.com 1.10,2013-12-16 07:09:00,
2013-12-16 01:24:00,41.2,27.0,29.95,NW,323,0.0,0.0,57,0.00,,,0.00,weatherlink.com 1.10,2013-12-16 07:24:00,
2013-12-16 01:40:00,40.4,26.0,29.96,SE,138,0.0,0.0,58,0.00,,,0.00,weatherlink.com 1.10,2013-12-16 07:40:00,
2013-12-16 01:54:00,39.9,27.0,29.96,South,171,0.0,1.0,60,0.00,,,0.00,weatherlink.com 1.10,2013-12-16 07:54:00,
2013-12-16 02:09:00,40.3,27.0,29.97,NW,317,0.0,1.0,59,0.00,,,0.00,weatherlink.com 1.10,2013-12-16 08:09:00,
2013-12-16 02:24:00,40.2,27.0,29.97,WNW,287,0.0,4.0,59,0.00,,,0.00,weatherlink.com 1.10,2013-12-16 08:24:00,
2013-12-16 02:39:00,40.1,27.0,29.98,WNW,300,0.0,1.0,59,0.00,,,0.00,weatherlink.com 1.10,2013-12-16 08:39:00,
2013-12-16 02:54:00,39.6,27.0,29.97,WNW,302,0.0,1.0,60,0.00,,,0.00,weatherlink.com 1.10,2013-12-16 08:54:00,
2013-12-16 03:09:00,39.2,26.0,29.98,NW,307,0.0,1.0,60,0.00,,,0.00,weatherlink.com 1.10,2013-12-16 09:09:00,
2013-12-16 03:24:00,38.5,26.0,29.98,WNW,294,0.0,1.0,62,0.00,,,0.00,weatherlink.com 1.10,2013-12-16 09:24:00,
2013-12-16 03:39:00,38.0,26.0,29.98,WNW,294,0.0,0.0,62,0.00,,,0.00,weatherlink.com 1.10,2013-12-16 09:39:00,
2013-12-16 03:54:00,37.6,26.0,29.98,WNW,295,0.0,0.0,64,0.00,,,0.00,weatherlink.com 1.10,2013-12-16 09:54:00,
2013-12-16 04:09:00,37.2,26.0,29.99,WNW,295,0.0,0.0,65,0.00,,,0.00,weatherlink.com 1.10,2013-12-16 10:09:00,
2013-12-16 04:24:00,36.7,26.0,29.98,WNW,295,0.0,0.0,65,0.00,,,0.00,weatherlink.com 1.10,2013-12-16 10:24:00,
2013-12-16 04:39:00,35.3,26.0,29.99,WNW,295,0.0,0.0,69,0.00,,,0.00,weatherlink.com 1.10,2013-12-16 10:39:00,
2013-12-16 04:54:00,34.3,26.0,29.99,WNW,295,0.0,0.0,71,0.00,,,0.00,weatherlink.com 1.10,2013-12-16 10:54:00,
2013-12-16 05:09:00,33.4,25.0,29.99,WNW,295,0.0,0.0,72,0.00,,,0.00,weatherlink.com 1.10,2013-12-16 11:09:00,
2013-12-16 05:25:00,32.6,25.0,29.99,WNW,295,0.0,0.0,74,0.00,,,0.00,weatherlink.com 1.10,2013-12-16 11:25:00,
2013-12-16 05:40:00,31.8,25.0,30.00,WNW,295,0.0,0.0,76,0.00,,,0.00,weatherlink.com 1.10,2013-12-16 11:40:00,
2013-12-16 05:55:00,31.1,25.0,30.00,WNW,295,0.0,0.0,77,0.00,,,0.00,weatherlink.com 1.10,2013-12-16 11:55:00,
2013-12-16 06:10:00,30.8,25.0,29.99,WNW,295,0.0,0.0,78,0.00,,,0.00,weatherlink.com 1.10,2013-12-16 12:10:00,
2013-12-16 06:25:00,30.5,25.0,29.99,WNW,295,0.0,0.0,79,0.00,,,0.00,weatherlink.com 1.10,2013-12-16 12:25:00,
2013-12-16 06:40:00,30.1,24.0,29.99,WNW,295,0.0,0.0,79,0.00,,,0.00,weatherlink.com 1.10,2013-12-16 12:40:00,
2013-12-16 06:55:00,29.5,24.0,30.00,WNW,295,0.0,0.0,80,0.00,,,0.00,weatherlink.com 1.10,2013-12-16 12:55:00,
2013-12-16 07:10:00,29.5,25.0,30.00,WNW,295,0.0,0.0,82,0.00,,,0.00,weatherlink.com 1.10,2013-12-16 13:10:00,
2013-12-16 07:25:00,29.2,24.0,30.00,WNW,295,0.0,0.0,82,0.00,,,0.00,weatherlink.com 1.10,2013-12-16 13:25:00,
2013-12-16 07:40:00,29.0,25.0,30.00,WNW,295,0.0,0.0,83,0.00,,,0.00,weatherlink.com 1.10,2013-12-16 13:40:00,
2013-12-16 07:55:00,28.9,24.0,30.00,WNW,295,0.0,0.0,83,0.00,,,0.00,weatherlink.com 1.10,2013-12-16 13:55:00,
2013-12-16 08:10:00,29.2,25.0,30.01,WNW,295,0.0,0.0,84,0.00,,,0.00,weatherlink.com 1.10,2013-12-16 14:10:00,
2013-12-16 08:25:00,29.6,25.0,30.01,WNW,295,0.0,0.0,84,0.00,,,0.00,weatherlink.com 1.10,2013-12-16 14:25:00,
2013-12-16 08:40:00,31.8,27.0,30.02,SSW,211,0.0,0.0,83,0.00,,,0.00,weatherlink.com 1.10,2013-12-16 14:40:00,
2013-12-16 08:55:00,34.7,28.0,30.03,SSW,212,0.0,0.0,75,0.00,,,0.00,weatherlink.com 1.10,2013-12-16 14:55:00,
2013-12-16 09:10:00,36.8,28.0,30.03,SSW,212,0.0,0.0,70,0.00,,,0.00,weatherlink.com 1.10,2013-12-16 15:10:00,
2013-12-16 09:25:00,37.9,28.0,30.04,South,191,0.0,1.0,67,0.00,,,0.00,weatherlink.com 1.10,2013-12-16 15:25:00,
2013-12-16 09:40:00,38.5,28.0,30.04,South,191,0.0,1.0,65,0.00,,,0.00,weatherlink.com 1.10,2013-12-16 15:40:00,
2013-12-16 09:55:00,39.6,28.0,30.04,South,191,0.0,0.0,64,0.00,,,0.00,weatherlink.com 1.10,2013-12-16 15:55:00,
2013-12-16 10:10:00,40.8,28.0,30.04,South,191,0.0,1.0,61,0.00,,,0.00,weatherlink.com 1.10,2013-12-16 16:10:00,
2013-12-16 10:25:00,42.4,28.0,30.03,South,191,0.0,1.0,58,0.00,,,0.00,weatherlink.com 1.10,2013-12-16 16:25:00,
2013-12-16 10:40:00,43.8,29.0,30.04,SSW,204,0.0,0.0,57,0.00,,,0.00,weatherlink.com 1.10,2013-12-16 16:40:00,
2013-12-16 10:55:00,45.3,30.0,30.02,South,191,0.0,0.0,56,0.00,,,0.00,weatherlink.com 1.10,2013-12-16 16:55:00,
2013-12-16 11:10:00,46.4,30.0,30.02,South,188,0.0,2.0,53,0.00,,,0.00,weatherlink.com 1.10,2013-12-16 17:10:00,
2013-12-16 11:26:00,47.6,31.0,30.01,South,190,0.0,2.0,52,0.00,,,0.00,weatherlink.com 1.10,2013-12-16 17:26:00,
2013-12-16 11:41:00,49.0,31.0,30.00,ESE,120,0.0,3.0,50,0.00,,,0.00,weatherlink.com 1.10,2013-12-16 17:41:00,
2013-12-16 11:56:00,50.3,32.0,30.00,SSE,150,0.0,1.0,49,0.00,,,0.00,weatherlink.com 1.10,2013-12-16 17:56:00,
2013-12-16 12:11:00,52.0,32.0,29.99,ESE,113,0.0,3.0,46,0.00,,,0.00,weatherlink.com 1.10,2013-12-16 18:11:00,
2013-12-16 12:26:00,53.6,31.0,29.98,East,89,0.0,2.0,43,0.00,,,0.00,weatherlink.com 1.10,2013-12-16 18:26:00,
2013-12-16 12:41:00,54.4,32.0,29.98,NE,56,0.0,2.0,43,0.00,,,0.00,weatherlink.com 1.10,2013-12-16 18:41:00,
2013-12-16 12:56:00,55.2,31.0,29.98,WNW,296,0.0,4.0,40,0.00,,,0.00,weatherlink.com 1.10,2013-12-16 18:56:00,
2013-12-16 13:11:00,55.5,32.0,29.98,NW,304,0.0,3.0,41,0.00,,,0.00,weatherlink.com 1.10,2013-12-16 19:11:00,
2013-12-16 13:26:00,56.2,32.0,29.97,South,188,0.0,4.0,40,0.00,,,0.00,weatherlink.com 1.10,2013-12-16 19:26:00,
2013-12-16 13:56:00,58.3,31.0,29.96,WNW,294,1.0,5.0,36,0.00,,,0.00,weatherlink.com 1.10,2013-12-16 19:56:00,
2013-12-16 14:11:00,58.6,32.0,29.95,East,81,1.0,3.0,36,0.00,,,0.00,weatherlink.com 1.10,2013-12-16 20:11:00,
2013-12-16 14:26:00,59.3,31.0,29.95,South,188,0.0,6.0,35,0.00,,,0.00,weatherlink.com 1.10,2013-12-16 20:26:00,
2013-12-16 14:41:00,59.3,31.0,29.95,NW,316,0.0,3.0,34,0.00,,,0.00,weatherlink.com 1.10,2013-12-16 20:41:00,
2013-12-16 14:56:00,58.9,31.0,29.94,NNW,342,0.0,5.0,35,0.00,,,0.00,weatherlink.com 1.10,2013-12-16 20:56:00,
2013-12-16 15:11:00,59.0,31.0,29.96,WNW,298,1.0,4.0,35,0.00,,,0.00,weatherlink.com 1.10,2013-12-16 21:11:00,
2013-12-16 15:26:00,59.0,32.0,29.97,WNW,297,0.0,4.0,36,0.00,,,0.00,weatherlink.com 1.10,2013-12-16 21:26:00,
2013-12-16 15:41:00,57.6,31.0,29.98,NW,305,0.0,7.0,37,0.00,,,0.00,weatherlink.com 1.10,2013-12-16 21:41:00,
2013-12-16 15:56:00,56.6,31.0,29.99,NW,323,0.0,3.0,38,0.00,,,0.00,weatherlink.com 1.10,2013-12-16 21:56:00,
2013-12-16 16:11:00,56.3,31.0,30.00,WNW,300,0.0,6.0,39,0.00,,,0.00,weatherlink.com 1.10,2013-12-16 22:11:00,
2013-12-16 16:26:00,55.9,32.0,30.01,NNW,340,0.0,5.0,40,0.00,,,0.00,weatherlink.com 1.10,2013-12-16 22:26:00,
2013-12-16 16:41:00,54.0,34.0,30.02,WNW,300,2.0,11.0,48,0.00,,,0.00,weatherlink.com 1.10,2013-12-16 22:41:00,
2013-12-16 16:56:00,50.4,34.0,30.03,West,275,0.0,7.0,54,0.00,,,0.00,weatherlink.com 1.10,2013-12-16 22:56:00,
2013-12-16 17:11:00,48.7,33.0,30.04,NW,309,0.0,4.0,56,0.00,,,0.00,weatherlink.com 1.10,2013-12-16 23:11:00,
2013-12-16 17:26:00,47.4,33.0,30.05,NW,321,0.0,1.0,57,0.00,,,0.00,weatherlink.com 1.10,2013-12-16 23:26:00,
2013-12-16 17:41:00,46.6,33.0,30.06,NNW,331,0.0,2.0,59,0.00,,,0.00,weatherlink.com 1.10,2013-12-16 23:41:00,
2013-12-16 17:57:00,46.0,32.0,30.07,NNW,329,0.0,6.0,59,0.00,,,0.00,weatherlink.com 1.10,2013-12-16 23:57:00,
2013-12-16 18:12:00,44.9,31.0,30.07,NW,309,0.0,3.0,59,0.00,,,0.00,weatherlink.com 1.10,2013-12-17 00:12:00,
2013-12-16 18:27:00,44.3,31.0,30.08,NW,321,0.0,2.0,61,0.00,,,0.00,weatherlink.com 1.10,2013-12-17 00:27:00,
2013-12-16 18:42:00,43.6,31.0,30.09,NW,308,0.0,1.0,62,0.00,,,0.00,weatherlink.com 1.10,2013-12-17 00:42:00,
2013-12-16 19:12:00,42.4,31.0,30.09,NW,315,0.0,2.0,64,0.00,,,0.00,weatherlink.com 1.10,2013-12-17 01:12:00,
2013-12-16 19:27:00,41.7,31.0,30.10,NW,315,0.0,1.0,66,0.00,,,0.00,weatherlink.com 1.10,2013-12-17 01:27:00,
2013-12-16 19:42:00,41.1,30.0,30.09,NW,315,0.0,0.0,66,0.00,,,0.00,weatherlink.com 1.10,2013-12-17 01:42:00,
2013-12-16 19:57:00,40.1,31.0,30.11,NW,315,0.0,0.0,69,0.00,,,0.00,weatherlink.com 1.10,2013-12-17 01:57:00,
2013-12-16 20:12:00,39.2,30.0,30.11,NW,315,0.0,0.0,70,0.00,,,0.00,weatherlink.com 1.10,2013-12-17 02:12:00,
2013-12-16 20:27:00,38.7,30.0,30.11,NW,315,0.0,0.0,71,0.00,,,0.00,weatherlink.com 1.10,2013-12-17 02:27:00,
2013-12-16 20:42:00,38.7,30.0,30.11,NW,315,0.0,0.0,71,0.00,,,0.00,weatherlink.com 1.10,2013-12-17 02:42:00,
2013-12-16 20:57:00,38.1,29.0,30.11,NW,315,0.0,0.0,71,0.00,,,0.00,weatherlink.com 1.10,2013-12-17 02:57:00,
2013-12-16 21:12:00,36.7,29.0,30.11,NW,314,0.0,0.0,74,0.00,,,0.00,weatherlink.com 1.10,2013-12-17 03:12:00,
2013-12-16 21:27:00,35.6,28.0,30.12,NW,315,0.0,0.0,75,0.00,,,0.00,weatherlink.com 1.10,2013-12-17 03:27:00,
2013-12-16 21:42:00,34.8,29.0,30.12,NW,313,0.0,0.0,78,0.00,,,0.00,weatherlink.com 1.10,2013-12-17 03:42:00,
2013-12-16 21:57:00,34.4,29.0,30.11,NW,315,0.0,0.0,79,0.00,,,0.00,weatherlink.com 1.10,2013-12-17 03:57:00,
2013-12-16 22:12:00,34.0,28.0,30.12,NW,315,0.0,0.0,79,0.00,,,0.00,weatherlink.com 1.10,2013-12-17 04:12:00,
2013-12-16 22:27:00,33.5,28.0,30.13,NW,315,0.0,0.0,81,0.00,,,0.00,weatherlink.com 1.10,2013-12-17 04:27:00,
2013-12-16 22:42:00,33.4,28.0,30.13,NW,315,0.0,0.0,81,0.00,,,0.00,weatherlink.com 1.10,2013-12-17 04:42:00,
2013-12-16 22:57:00,33.4,29.0,30.13,NW,315,0.0,0.0,82,0.00,,,0.00,weatherlink.com 1.10,2013-12-17 04:57:00,
2013-12-16 23:12:00,33.2,28.0,30.13,NW,315,0.0,0.0,81,0.00,,,0.00,weatherlink.com 1.10,2013-12-17 05:12:00,
2013-12-16 23:27:00,33.1,28.0,30.13,NW,314,0.0,0.0,82,0.00,,,0.00,weatherlink.com 1.10,2013-12-17 05:27:00,
2013-12-16 23:42:00,32.7,28.0,30.13,NW,315,0.0,0.0,83,0.00,,,0.00,weatherlink.com 1.10,2013-12-17 05:42:00,
2013-12-16 23:57:00,32.7,28.0,30.13,NW,315,0.0,0.0,84,0.00,,,0.00,weatherlink.com 1.10,2013-12-17 05:57:00,